sensor_id;sensor_type;location;lat;lon;timestamp;P1;durP1;ratioP1;P2;durP2;ratioP2
11709;SDS011;5911;51.036;6.972;2023-04-24T00:00:46;0.80;;;0.70;;
11709;SDS011;5911;51.036;6.972;2023-04-24T00:03:15;0.90;;;0.90;;
11709;SDS011;5911;51.036;6.972;2023-04-24T00:05:43;1.40;;;0.80;;
11709;SDS011;5911;51.036;6.972;2023-04-24T00:08:11;1.10;;;0.80;;
11709;SDS011;5911;51.036;6.972;2023-04-24T00:10:41;1.00;;;0.90;;
11709;SDS011;5911;51.036;6.972;2023-04-24T00:13:09;0.77;;;0.77;;
11709;SDS011;5911;51.036;6.972;2023-04-24T00:15:36;1.17;;;0.70;;
11709;SDS011;5911;51.036;6.972;2023-04-24T00:18:04;1.10;;;0.60;;
11709;SDS011;5911;51.036;6.972;2023-04-24T00:20:32;0.67;;;0.57;;
11709;SDS011;5911;51.036;6.972;2023-04-24T00:23:01;1.30;;;0.70;;
11709;SDS011;5911;51.036;6.972;2023-04-24T00:25:29;1.20;;;0.80;;
11709;SDS011;5911;51.036;6.972;2023-04-24T00:27:58;0.83;;;0.80;;
11709;SDS011;5911;51.036;6.972;2023-04-24T00:30:26;1.67;;;0.90;;
11709;SDS011;5911;51.036;6.972;2023-04-24T00:32:55;1.00;;;0.80;;
11709;SDS011;5911;51.036;6.972;2023-04-24T00:35:23;1.17;;;0.80;;
11709;SDS011;5911;51.036;6.972;2023-04-24T00:37:51;1.00;;;0.83;;
11709;SDS011;5911;51.036;6.972;2023-04-24T00:40:18;1.40;;;1.10;;
11709;SDS011;5911;51.036;6.972;2023-04-24T00:42:46;2.97;;;1.03;;
11709;SDS011;5911;51.036;6.972;2023-04-24T00:45:16;0.97;;;0.80;;
11709;SDS011;5911;51.036;6.972;2023-04-24T00:47:44;1.03;;;0.90;;
11709;SDS011;5911;51.036;6.972;2023-04-24T00:50:14;1.00;;;0.90;;
11709;SDS011;5911;51.036;6.972;2023-04-24T00:52:42;0.82;;;0.60;;
11709;SDS011;5911;51.036;6.972;2023-04-24T00:55:10;1.57;;;0.80;;
11709;SDS011;5911;51.036;6.972;2023-04-24T00:57:38;1.43;;;0.70;;
11709;SDS011;5911;51.036;6.972;2023-04-24T01:00:06;1.53;;;0.90;;
11709;SDS011;5911;51.036;6.972;2023-04-24T01:02:39;2.40;;;1.00;;
11709;SDS011;5911;51.036;6.972;2023-04-24T01:05:10;1.77;;;0.90;;
11709;SDS011;5911;51.036;6.972;2023-04-24T01:07:39;1.77;;;1.00;;
11709;SDS011;5911;51.036;6.972;2023-04-24T01:10:10;1.00;;;0.97;;
11709;SDS011;5911;51.036;6.972;2023-04-24T01:12:40;1.73;;;0.90;;
11709;SDS011;5911;51.036;6.972;2023-04-24T01:15:08;3.53;;;1.00;;
11709;SDS011;5911;51.036;6.972;2023-04-24T01:17:37;1.53;;;1.00;;
11709;SDS011;5911;51.036;6.972;2023-04-24T01:20:07;1.63;;;1.00;;
11709;SDS011;5911;51.036;6.972;2023-04-24T01:22:37;2.13;;;1.00;;
11709;SDS011;5911;51.036;6.972;2023-04-24T01:25:05;2.23;;;1.30;;
11709;SDS011;5911;51.036;6.972;2023-04-24T01:27:33;1.57;;;1.17;;
11709;SDS011;5911;51.036;6.972;2023-04-24T01:30:04;2.90;;;1.60;;
11709;SDS011;5911;51.036;6.972;2023-04-24T01:32:33;3.97;;;1.50;;
11709;SDS011;5911;51.036;6.972;2023-04-24T01:35:02;2.57;;;1.50;;
11709;SDS011;5911;51.036;6.972;2023-04-24T01:37:30;2.57;;;1.27;;
11709;SDS011;5911;51.036;6.972;2023-04-24T01:40:00;2.20;;;1.57;;
11709;SDS011;5911;51.036;6.972;2023-04-24T01:42:29;2.37;;;1.90;;
11709;SDS011;5911;51.036;6.972;2023-04-24T01:44:57;1.90;;;1.80;;
11709;SDS011;5911;51.036;6.972;2023-04-24T01:47:26;3.47;;;2.15;;
11709;SDS011;5911;51.036;6.972;2023-04-24T01:49:56;3.70;;;2.17;;
11709;SDS011;5911;51.036;6.972;2023-04-24T01:52:23;2.73;;;1.90;;
11709;SDS011;5911;51.036;6.972;2023-04-24T01:54:52;3.42;;;2.13;;
11709;SDS011;5911;51.036;6.972;2023-04-24T01:57:23;4.33;;;2.17;;
11709;SDS011;5911;51.036;6.972;2023-04-24T01:59:51;4.90;;;2.50;;
11709;SDS011;5911;51.036;6.972;2023-04-24T02:02:19;3.53;;;2.63;;
11709;SDS011;5911;51.036;6.972;2023-04-24T02:04:47;3.40;;;2.73;;
11709;SDS011;5911;51.036;6.972;2023-04-24T02:07:16;3.10;;;2.43;;
11709;SDS011;5911;51.036;6.972;2023-04-24T02:09:43;3.93;;;2.60;;
11709;SDS011;5911;51.036;6.972;2023-04-24T02:12:11;3.22;;;2.45;;
11709;SDS011;5911;51.036;6.972;2023-04-24T02:14:40;3.37;;;3.07;;
11709;SDS011;5911;51.036;6.972;2023-04-24T02:17:09;3.90;;;3.50;;
11709;SDS011;5911;51.036;6.972;2023-04-24T02:19:39;5.30;;;4.00;;
11709;SDS011;5911;51.036;6.972;2023-04-24T02:22:09;6.50;;;3.90;;
11709;SDS011;5911;51.036;6.972;2023-04-24T02:24:36;4.10;;;3.70;;
11709;SDS011;5911;51.036;6.972;2023-04-24T02:27:05;7.60;;;4.40;;
11709;SDS011;5911;51.036;6.972;2023-04-24T02:29:34;6.10;;;4.07;;
11709;SDS011;5911;51.036;6.972;2023-04-24T02:32:03;5.00;;;3.90;;
11709;SDS011;5911;51.036;6.972;2023-04-24T02:34:32;4.53;;;3.97;;
11709;SDS011;5911;51.036;6.972;2023-04-24T02:37:00;6.37;;;4.17;;
11709;SDS011;5911;51.036;6.972;2023-04-24T02:39:27;6.80;;;4.77;;
11709;SDS011;5911;51.036;6.972;2023-04-24T02:41:55;6.87;;;4.60;;
11709;SDS011;5911;51.036;6.972;2023-04-24T02:44:23;6.70;;;4.60;;
11709;SDS011;5911;51.036;6.972;2023-04-24T02:46:54;5.90;;;4.63;;
11709;SDS011;5911;51.036;6.972;2023-04-24T02:49:23;6.07;;;5.00;;
11709;SDS011;5911;51.036;6.972;2023-04-24T02:51:53;5.63;;;4.33;;
11709;SDS011;5911;51.036;6.972;2023-04-24T02:54:20;6.70;;;4.80;;
11709;SDS011;5911;51.036;6.972;2023-04-24T02:56:48;5.50;;;4.80;;
11709;SDS011;5911;51.036;6.972;2023-04-24T02:59:16;5.13;;;4.63;;
11709;SDS011;5911;51.036;6.972;2023-04-24T03:01:44;5.93;;;4.80;;
11709;SDS011;5911;51.036;6.972;2023-04-24T03:04:12;4.67;;;3.83;;
11709;SDS011;5911;51.036;6.972;2023-04-24T03:06:41;7.33;;;4.47;;
11709;SDS011;5911;51.036;6.972;2023-04-24T03:09:09;6.33;;;5.20;;
11709;SDS011;5911;51.036;6.972;2023-04-24T03:11:37;5.63;;;4.97;;
11709;SDS011;5911;51.036;6.972;2023-04-24T03:14:07;6.77;;;5.27;;
11709;SDS011;5911;51.036;6.972;2023-04-24T03:16:36;6.67;;;4.83;;
11709;SDS011;5911;51.036;6.972;2023-04-24T03:19:05;5.87;;;5.00;;
11709;SDS011;5911;51.036;6.972;2023-04-24T03:21:42;7.10;;;4.83;;
11709;SDS011;5911;51.036;6.972;2023-04-24T03:24:10;6.10;;;5.50;;
11709;SDS011;5911;51.036;6.972;2023-04-24T03:26:38;6.63;;;5.97;;
11709;SDS011;5911;51.036;6.972;2023-04-24T03:29:17;8.40;;;5.03;;
11709;SDS011;5911;51.036;6.972;2023-04-24T03:31:46;6.47;;;4.90;;
11709;SDS011;5911;51.036;6.972;2023-04-24T03:34:14;6.47;;;5.50;;
11709;SDS011;5911;51.036;6.972;2023-04-24T03:36:44;6.90;;;5.37;;
11709;SDS011;5911;51.036;6.972;2023-04-24T03:39:13;6.20;;;5.40;;
11709;SDS011;5911;51.036;6.972;2023-04-24T03:41:49;8.80;;;5.73;;
11709;SDS011;5911;51.036;6.972;2023-04-24T03:44:21;7.30;;;5.57;;
11709;SDS011;5911;51.036;6.972;2023-04-24T03:46:50;7.50;;;5.47;;
11709;SDS011;5911;51.036;6.972;2023-04-24T03:49:20;6.60;;;5.47;;
11709;SDS011;5911;51.036;6.972;2023-04-24T03:51:49;6.70;;;5.90;;
11709;SDS011;5911;51.036;6.972;2023-04-24T03:54:22;7.70;;;6.03;;
11709;SDS011;5911;51.036;6.972;2023-04-24T03:56:51;7.30;;;5.73;;
11709;SDS011;5911;51.036;6.972;2023-04-24T03:59:19;9.63;;;5.67;;
11709;SDS011;5911;51.036;6.972;2023-04-24T04:01:58;8.30;;;6.10;;
11709;SDS011;5911;51.036;6.972;2023-04-24T04:04:26;8.37;;;5.33;;
11709;SDS011;5911;51.036;6.972;2023-04-24T04:06:56;6.30;;;5.33;;
11709;SDS011;5911;51.036;6.972;2023-04-24T04:09:27;7.30;;;5.37;;
11709;SDS011;5911;51.036;6.972;2023-04-24T04:11:55;7.93;;;5.30;;
11709;SDS011;5911;51.036;6.972;2023-04-24T04:14:22;6.90;;;5.23;;
11709;SDS011;5911;51.036;6.972;2023-04-24T04:16:51;10.50;;;5.73;;
11709;SDS011;5911;51.036;6.972;2023-04-24T04:19:20;6.20;;;5.20;;
11709;SDS011;5911;51.036;6.972;2023-04-24T04:21:48;7.77;;;5.50;;
11709;SDS011;5911;51.036;6.972;2023-04-24T04:24:28;5.70;;;5.13;;
11709;SDS011;5911;51.036;6.972;2023-04-24T04:26:57;5.83;;;5.07;;
11709;SDS011;5911;51.036;6.972;2023-04-24T04:29:30;7.60;;;5.43;;
11709;SDS011;5911;51.036;6.972;2023-04-24T04:32:00;6.63;;;5.67;;
11709;SDS011;5911;51.036;6.972;2023-04-24T04:34:29;7.50;;;6.20;;
11709;SDS011;5911;51.036;6.972;2023-04-24T04:36:59;5.47;;;4.67;;
11709;SDS011;5911;51.036;6.972;2023-04-24T04:39:40;8.67;;;5.13;;
11709;SDS011;5911;51.036;6.972;2023-04-24T04:42:12;8.37;;;5.30;;
11709;SDS011;5911;51.036;6.972;2023-04-24T04:44:42;5.83;;;5.27;;
11709;SDS011;5911;51.036;6.972;2023-04-24T04:47:16;5.70;;;4.60;;
11709;SDS011;5911;51.036;6.972;2023-04-24T04:49:45;6.43;;;5.03;;
11709;SDS011;5911;51.036;6.972;2023-04-24T04:52:18;6.63;;;4.97;;
11709;SDS011;5911;51.036;6.972;2023-04-24T04:54:52;7.30;;;5.10;;
11709;SDS011;5911;51.036;6.972;2023-04-24T04:57:24;5.30;;;4.70;;
11709;SDS011;5911;51.036;6.972;2023-04-24T04:59:52;5.10;;;4.60;;
11709;SDS011;5911;51.036;6.972;2023-04-24T05:02:34;6.63;;;4.63;;
11709;SDS011;5911;51.036;6.972;2023-04-24T05:05:02;5.30;;;4.77;;
11709;SDS011;5911;51.036;6.972;2023-04-24T05:07:30;6.10;;;5.03;;
11709;SDS011;5911;51.036;6.972;2023-04-24T05:10:00;8.47;;;5.17;;
11709;SDS011;5911;51.036;6.972;2023-04-24T05:12:28;6.53;;;4.73;;
11709;SDS011;5911;51.036;6.972;2023-04-24T05:14:57;6.03;;;5.43;;
11709;SDS011;5911;51.036;6.972;2023-04-24T05:17:25;6.17;;;4.80;;
11709;SDS011;5911;51.036;6.972;2023-04-24T05:19:55;6.07;;;4.70;;
11709;SDS011;5911;51.036;6.972;2023-04-24T05:22:23;5.07;;;4.57;;
11709;SDS011;5911;51.036;6.972;2023-04-24T05:24:51;6.30;;;4.90;;
11709;SDS011;5911;51.036;6.972;2023-04-24T05:27:36;8.50;;;4.90;;
11709;SDS011;5911;51.036;6.972;2023-04-24T05:30:11;5.57;;;4.20;;
11709;SDS011;5911;51.036;6.972;2023-04-24T05:32:39;5.60;;;4.80;;
11709;SDS011;5911;51.036;6.972;2023-04-24T05:35:07;6.17;;;4.60;;
11709;SDS011;5911;51.036;6.972;2023-04-24T05:37:35;6.30;;;5.10;;
11709;SDS011;5911;51.036;6.972;2023-04-24T05:40:04;6.57;;;5.60;;
11709;SDS011;5911;51.036;6.972;2023-04-24T05:42:33;7.97;;;5.03;;
11709;SDS011;5911;51.036;6.972;2023-04-24T05:45:02;5.53;;;4.13;;
11709;SDS011;5911;51.036;6.972;2023-04-24T05:47:30;5.90;;;4.50;;
11709;SDS011;5911;51.036;6.972;2023-04-24T05:49:58;4.43;;;4.03;;
11709;SDS011;5911;51.036;6.972;2023-04-24T05:52:27;5.07;;;4.57;;
11709;SDS011;5911;51.036;6.972;2023-04-24T05:54:55;7.50;;;5.00;;
11709;SDS011;5911;51.036;6.972;2023-04-24T05:57:27;6.50;;;4.83;;
11709;SDS011;5911;51.036;6.972;2023-04-24T06:00:03;5.30;;;4.70;;
11709;SDS011;5911;51.036;6.972;2023-04-24T06:02:38;6.63;;;4.43;;
11709;SDS011;5911;51.036;6.972;2023-04-24T06:05:09;4.73;;;4.13;;
11709;SDS011;5911;51.036;6.972;2023-04-24T06:07:38;6.03;;;4.37;;
11709;SDS011;5911;51.036;6.972;2023-04-24T06:10:07;8.47;;;4.60;;
11709;SDS011;5911;51.036;6.972;2023-04-24T06:12:40;4.57;;;3.70;;
11709;SDS011;5911;51.036;6.972;2023-04-24T06:15:15;5.60;;;4.60;;
11709;SDS011;5911;51.036;6.972;2023-04-24T06:17:56;4.40;;;3.80;;
11709;SDS011;5911;51.036;6.972;2023-04-24T06:20:25;4.47;;;2.97;;
11709;SDS011;5911;51.036;6.972;2023-04-24T06:22:53;5.47;;;3.17;;
11709;SDS011;5911;51.036;6.972;2023-04-24T06:25:21;3.67;;;3.33;;
11709;SDS011;5911;51.036;6.972;2023-04-24T06:27:49;4.73;;;4.10;;
11709;SDS011;5911;51.036;6.972;2023-04-24T06:30:19;4.73;;;3.50;;
11709;SDS011;5911;51.036;6.972;2023-04-24T06:32:46;4.70;;;3.50;;
11709;SDS011;5911;51.036;6.972;2023-04-24T06:35:14;5.63;;;3.20;;
11709;SDS011;5911;51.036;6.972;2023-04-24T06:37:42;4.83;;;3.07;;
11709;SDS011;5911;51.036;6.972;2023-04-24T06:40:10;4.63;;;2.27;;
11709;SDS011;5911;51.036;6.972;2023-04-24T06:42:38;2.30;;;2.00;;
11709;SDS011;5911;51.036;6.972;2023-04-24T06:45:08;1.60;;;1.50;;
11709;SDS011;5911;51.036;6.972;2023-04-24T06:47:37;3.10;;;1.80;;
11709;SDS011;5911;51.036;6.972;2023-04-24T06:50:05;2.90;;;1.93;;
11709;SDS011;5911;51.036;6.972;2023-04-24T06:52:34;3.13;;;1.70;;
11709;SDS011;5911;51.036;6.972;2023-04-24T06:55:02;2.40;;;1.73;;
11709;SDS011;5911;51.036;6.972;2023-04-24T06:57:30;1.90;;;1.80;;
11709;SDS011;5911;51.036;6.972;2023-04-24T06:59:58;2.93;;;2.00;;
11709;SDS011;5911;51.036;6.972;2023-04-24T07:02:26;3.17;;;2.20;;
11709;SDS011;5911;51.036;6.972;2023-04-24T07:04:55;2.10;;;1.73;;
11709;SDS011;5911;51.036;6.972;2023-04-24T07:07:23;4.93;;;1.70;;
11709;SDS011;5911;51.036;6.972;2023-04-24T07:09:51;3.77;;;2.00;;
11709;SDS011;5911;51.036;6.972;2023-04-24T07:12:20;2.43;;;1.90;;
11709;SDS011;5911;51.036;6.972;2023-04-24T07:14:48;3.00;;;1.70;;
11709;SDS011;5911;51.036;6.972;2023-04-24T07:17:16;2.50;;;2.30;;
11709;SDS011;5911;51.036;6.972;2023-04-24T07:19:43;2.37;;;2.03;;
11709;SDS011;5911;51.036;6.972;2023-04-24T07:22:13;3.07;;;2.00;;
11709;SDS011;5911;51.036;6.972;2023-04-24T07:24:43;3.83;;;2.13;;
11709;SDS011;5911;51.036;6.972;2023-04-24T07:27:11;2.63;;;2.20;;
11709;SDS011;5911;51.036;6.972;2023-04-24T07:29:41;2.50;;;2.30;;
11709;SDS011;5911;51.036;6.972;2023-04-24T07:32:09;4.50;;;2.63;;
11709;SDS011;5911;51.036;6.972;2023-04-24T07:34:37;3.70;;;2.60;;
11709;SDS011;5911;51.036;6.972;2023-04-24T07:37:04;3.90;;;3.03;;
11709;SDS011;5911;51.036;6.972;2023-04-24T07:39:34;4.57;;;3.10;;
11709;SDS011;5911;51.036;6.972;2023-04-24T07:42:02;3.10;;;2.60;;
11709;SDS011;5911;51.036;6.972;2023-04-24T07:44:30;2.13;;;1.93;;
11709;SDS011;5911;51.036;6.972;2023-04-24T07:46:58;4.07;;;2.03;;
11709;SDS011;5911;51.036;6.972;2023-04-24T07:49:26;2.73;;;1.90;;
11709;SDS011;5911;51.036;6.972;2023-04-24T07:51:54;2.93;;;2.10;;
11709;SDS011;5911;51.036;6.972;2023-04-24T07:54:22;3.40;;;2.10;;
11709;SDS011;5911;51.036;6.972;2023-04-24T07:56:51;3.60;;;1.73;;
11709;SDS011;5911;51.036;6.972;2023-04-24T07:59:19;2.57;;;1.70;;
11709;SDS011;5911;51.036;6.972;2023-04-24T08:01:47;1.97;;;1.83;;
11709;SDS011;5911;51.036;6.972;2023-04-24T08:04:14;2.93;;;2.20;;
11709;SDS011;5911;51.036;6.972;2023-04-24T08:06:44;6.70;;;1.90;;
11709;SDS011;5911;51.036;6.972;2023-04-24T08:09:12;2.97;;;2.10;;
11709;SDS011;5911;51.036;6.972;2023-04-24T08:11:39;4.70;;;2.00;;
11709;SDS011;5911;51.036;6.972;2023-04-24T08:14:08;6.33;;;2.50;;
11709;SDS011;5911;51.036;6.972;2023-04-24T08:16:38;2.70;;;1.97;;
11709;SDS011;5911;51.036;6.972;2023-04-24T08:19:06;2.33;;;2.13;;
11709;SDS011;5911;51.036;6.972;2023-04-24T08:21:34;3.10;;;2.07;;
11709;SDS011;5911;51.036;6.972;2023-04-24T08:24:02;2.03;;;1.83;;
11709;SDS011;5911;51.036;6.972;2023-04-24T08:26:33;5.17;;;1.87;;
11709;SDS011;5911;51.036;6.972;2023-04-24T08:29:01;3.77;;;2.20;;
11709;SDS011;5911;51.036;6.972;2023-04-24T08:31:31;2.67;;;2.40;;
11709;SDS011;5911;51.036;6.972;2023-04-24T08:33:58;4.23;;;2.00;;
11709;SDS011;5911;51.036;6.972;2023-04-24T08:36:27;3.73;;;1.90;;
11709;SDS011;5911;51.036;6.972;2023-04-24T08:39:11;2.70;;;2.00;;
11709;SDS011;5911;51.036;6.972;2023-04-24T08:41:39;3.27;;;2.40;;
11709;SDS011;5911;51.036;6.972;2023-04-24T08:44:09;3.67;;;2.07;;
11709;SDS011;5911;51.036;6.972;2023-04-24T08:46:40;2.17;;;1.97;;
11709;SDS011;5911;51.036;6.972;2023-04-24T08:49:09;2.53;;;2.20;;
11709;SDS011;5911;51.036;6.972;2023-04-24T08:51:38;3.80;;;2.00;;
11709;SDS011;5911;51.036;6.972;2023-04-24T08:54:07;2.50;;;2.30;;
11709;SDS011;5911;51.036;6.972;2023-04-24T08:56:36;3.10;;;2.67;;
11709;SDS011;5911;51.036;6.972;2023-04-24T08:59:06;5.80;;;3.13;;
11709;SDS011;5911;51.036;6.972;2023-04-24T09:01:35;4.73;;;3.50;;
11709;SDS011;5911;51.036;6.972;2023-04-24T09:04:07;4.40;;;3.63;;
11709;SDS011;5911;51.036;6.972;2023-04-24T09:06:37;6.83;;;4.00;;
11709;SDS011;5911;51.036;6.972;2023-04-24T09:09:06;5.03;;;4.53;;
11709;SDS011;5911;51.036;6.972;2023-04-24T09:11:35;6.17;;;4.13;;
11709;SDS011;5911;51.036;6.972;2023-04-24T09:14:04;4.73;;;4.20;;
11709;SDS011;5911;51.036;6.972;2023-04-24T09:16:34;5.13;;;4.23;;
11709;SDS011;5911;51.036;6.972;2023-04-24T09:19:02;5.57;;;4.43;;
11709;SDS011;5911;51.036;6.972;2023-04-24T09:21:32;5.50;;;4.17;;
11709;SDS011;5911;51.036;6.972;2023-04-24T09:24:01;6.83;;;4.17;;
11709;SDS011;5911;51.036;6.972;2023-04-24T09:26:31;5.10;;;4.53;;
11709;SDS011;5911;51.036;6.972;2023-04-24T09:28:59;6.37;;;4.80;;
11709;SDS011;5911;51.036;6.972;2023-04-24T09:31:28;6.27;;;5.03;;
11709;SDS011;5911;51.036;6.972;2023-04-24T09:33:57;7.03;;;5.03;;
11709;SDS011;5911;51.036;6.972;2023-04-24T09:36:28;5.97;;;4.80;;
11709;SDS011;5911;51.036;6.972;2023-04-24T09:39:01;9.17;;;5.97;;
11709;SDS011;5911;51.036;6.972;2023-04-24T09:41:29;9.13;;;6.03;;
11709;SDS011;5911;51.036;6.972;2023-04-24T09:43:57;11.60;;;5.90;;
11709;SDS011;5911;51.036;6.972;2023-04-24T09:46:37;5.93;;;4.77;;
11709;SDS011;5911;51.036;6.972;2023-04-24T09:49:09;7.83;;;5.17;;
11709;SDS011;5911;51.036;6.972;2023-04-24T09:51:39;6.50;;;5.07;;
11709;SDS011;5911;51.036;6.972;2023-04-24T09:54:15;8.63;;;5.23;;
11709;SDS011;5911;51.036;6.972;2023-04-24T09:56:44;9.37;;;5.20;;
11709;SDS011;5911;51.036;6.972;2023-04-24T09:59:14;9.63;;;6.27;;
11709;SDS011;5911;51.036;6.972;2023-04-24T10:01:42;9.70;;;6.33;;
11709;SDS011;5911;51.036;6.972;2023-04-24T10:04:15;10.70;;;6.90;;
11709;SDS011;5911;51.036;6.972;2023-04-24T10:06:44;9.57;;;7.23;;
11709;SDS011;5911;51.036;6.972;2023-04-24T10:09:16;14.30;;;7.43;;
11709;SDS011;5911;51.036;6.972;2023-04-24T10:11:45;8.93;;;6.97;;
11709;SDS011;5911;51.036;6.972;2023-04-24T10:14:15;11.03;;;7.67;;
11709;SDS011;5911;51.036;6.972;2023-04-24T10:16:44;10.70;;;7.10;;
11709;SDS011;5911;51.036;6.972;2023-04-24T10:19:13;9.77;;;7.53;;
11709;SDS011;5911;51.036;6.972;2023-04-24T10:21:42;13.40;;;6.97;;
11709;SDS011;5911;51.036;6.972;2023-04-24T10:24:13;9.97;;;6.50;;
11709;SDS011;5911;51.036;6.972;2023-04-24T10:26:44;8.67;;;6.97;;
11709;SDS011;5911;51.036;6.972;2023-04-24T10:29:15;10.77;;;5.83;;
11709;SDS011;5911;51.036;6.972;2023-04-24T10:31:45;9.63;;;5.93;;
11709;SDS011;5911;51.036;6.972;2023-04-24T10:34:14;14.67;;;6.83;;
11709;SDS011;5911;51.036;6.972;2023-04-24T10:36:46;7.77;;;5.90;;
11709;SDS011;5911;51.036;6.972;2023-04-24T10:39:21;10.83;;;6.23;;
11709;SDS011;5911;51.036;6.972;2023-04-24T10:41:54;9.43;;;5.57;;
11709;SDS011;5911;51.036;6.972;2023-04-24T10:44:23;10.10;;;6.00;;
11709;SDS011;5911;51.036;6.972;2023-04-24T10:46:53;7.10;;;5.43;;
11709;SDS011;5911;51.036;6.972;2023-04-24T10:49:27;7.23;;;4.70;;
11709;SDS011;5911;51.036;6.972;2023-04-24T10:51:59;9.90;;;5.57;;
11709;SDS011;5911;51.036;6.972;2023-04-24T10:54:28;9.43;;;5.83;;
11709;SDS011;5911;51.036;6.972;2023-04-24T11:02:47;9.33;;;4.00;;
11709;SDS011;5911;51.036;6.972;2023-04-24T11:05:20;7.03;;;3.60;;
11709;SDS011;5911;51.036;6.972;2023-04-24T11:10:43;9.83;;;4.07;;
11709;SDS011;5911;51.036;6.972;2023-04-24T11:13:15;11.00;;;3.80;;
11709;SDS011;5911;51.036;6.972;2023-04-24T11:15:43;8.20;;;3.70;;
11709;SDS011;5911;51.036;6.972;2023-04-24T11:18:15;9.67;;;3.73;;
11709;SDS011;5911;51.036;6.972;2023-04-24T11:20:43;6.03;;;3.03;;
11709;SDS011;5911;51.036;6.972;2023-04-24T11:23:12;11.50;;;4.47;;
11709;SDS011;5911;51.036;6.972;2023-04-24T11:25:41;6.00;;;3.40;;
11709;SDS011;5911;51.036;6.972;2023-04-24T11:28:09;6.40;;;3.93;;
11709;SDS011;5911;51.036;6.972;2023-04-24T11:30:43;10.83;;;4.37;;
11709;SDS011;5911;51.036;6.972;2023-04-24T11:33:11;7.70;;;3.80;;
11709;SDS011;5911;51.036;6.972;2023-04-24T11:35:47;7.10;;;4.10;;
11709;SDS011;5911;51.036;6.972;2023-04-24T11:38:14;6.03;;;3.87;;
11709;SDS011;5911;51.036;6.972;2023-04-24T11:40:50;7.57;;;3.60;;
11709;SDS011;5911;51.036;6.972;2023-04-24T11:43:20;7.57;;;4.40;;
11709;SDS011;5911;51.036;6.972;2023-04-24T11:45:48;7.90;;;4.40;;
11709;SDS011;5911;51.036;6.972;2023-04-24T11:48:18;10.00;;;5.13;;
11709;SDS011;5911;51.036;6.972;2023-04-24T11:50:48;9.83;;;5.00;;
11709;SDS011;5911;51.036;6.972;2023-04-24T11:53:18;8.23;;;4.70;;
11709;SDS011;5911;51.036;6.972;2023-04-24T11:55:46;7.07;;;4.80;;
11709;SDS011;5911;51.036;6.972;2023-04-24T11:58:14;7.83;;;4.63;;
11709;SDS011;5911;51.036;6.972;2023-04-24T12:00:43;12.73;;;5.40;;
11709;SDS011;5911;51.036;6.972;2023-04-24T12:03:12;9.40;;;4.40;;
11709;SDS011;5911;51.036;6.972;2023-04-24T12:05:40;10.47;;;4.77;;
11709;SDS011;5911;51.036;6.972;2023-04-24T12:08:08;6.97;;;4.27;;
11709;SDS011;5911;51.036;6.972;2023-04-24T12:10:36;12.03;;;4.97;;
11709;SDS011;5911;51.036;6.972;2023-04-24T12:13:04;11.03;;;4.60;;
11709;SDS011;5911;51.036;6.972;2023-04-24T12:15:32;8.50;;;5.13;;
11709;SDS011;5911;51.036;6.972;2023-04-24T12:18:01;8.67;;;3.90;;
11709;SDS011;5911;51.036;6.972;2023-04-24T12:20:29;10.27;;;4.80;;
11709;SDS011;5911;51.036;6.972;2023-04-24T12:22:58;10.63;;;4.90;;
11709;SDS011;5911;51.036;6.972;2023-04-24T12:25:28;7.77;;;3.97;;
11709;SDS011;5911;51.036;6.972;2023-04-24T12:28:08;8.10;;;3.83;;
11709;SDS011;5911;51.036;6.972;2023-04-24T12:30:39;6.93;;;3.27;;
11709;SDS011;5911;51.036;6.972;2023-04-24T12:33:17;5.63;;;3.60;;
11709;SDS011;5911;51.036;6.972;2023-04-24T12:35:45;6.57;;;3.80;;
11709;SDS011;5911;51.036;6.972;2023-04-24T12:38:13;5.23;;;3.40;;
11709;SDS011;5911;51.036;6.972;2023-04-24T12:40:44;7.67;;;3.73;;
11709;SDS011;5911;51.036;6.972;2023-04-24T12:43:15;8.57;;;3.57;;
11709;SDS011;5911;51.036;6.972;2023-04-24T12:45:43;7.07;;;3.77;;
11709;SDS011;5911;51.036;6.972;2023-04-24T12:48:11;4.90;;;3.20;;
11709;SDS011;5911;51.036;6.972;2023-04-24T12:50:41;9.40;;;3.90;;
11709;SDS011;5911;51.036;6.972;2023-04-24T12:53:11;7.57;;;4.07;;
11709;SDS011;5911;51.036;6.972;2023-04-24T12:55:39;8.67;;;3.97;;
11709;SDS011;5911;51.036;6.972;2023-04-24T12:58:07;8.23;;;3.50;;
11709;SDS011;5911;51.036;6.972;2023-04-24T13:00:35;9.23;;;3.70;;
11709;SDS011;5911;51.036;6.972;2023-04-24T13:03:04;8.20;;;4.30;;
11709;SDS011;5911;51.036;6.972;2023-04-24T13:05:32;7.00;;;4.07;;
11709;SDS011;5911;51.036;6.972;2023-04-24T13:08:01;5.67;;;3.63;;
11709;SDS011;5911;51.036;6.972;2023-04-24T13:10:29;6.97;;;3.60;;
11709;SDS011;5911;51.036;6.972;2023-04-24T13:12:57;6.10;;;3.30;;
11709;SDS011;5911;51.036;6.972;2023-04-24T13:15:25;6.67;;;3.57;;
11709;SDS011;5911;51.036;6.972;2023-04-24T13:17:53;6.47;;;3.60;;
11709;SDS011;5911;51.036;6.972;2023-04-24T13:20:20;6.33;;;3.63;;
11709;SDS011;5911;51.036;6.972;2023-04-24T13:22:48;8.60;;;3.73;;
11709;SDS011;5911;51.036;6.972;2023-04-24T13:25:18;7.13;;;3.10;;
11709;SDS011;5911;51.036;6.972;2023-04-24T13:27:46;8.97;;;3.60;;
11709;SDS011;5911;51.036;6.972;2023-04-24T13:30:14;6.30;;;2.93;;
11709;SDS011;5911;51.036;6.972;2023-04-24T13:32:42;6.87;;;2.70;;
11709;SDS011;5911;51.036;6.972;2023-04-24T13:35:10;6.90;;;3.10;;
11709;SDS011;5911;51.036;6.972;2023-04-24T13:37:38;8.27;;;3.40;;
11709;SDS011;5911;51.036;6.972;2023-04-24T13:40:06;4.20;;;2.70;;
11709;SDS011;5911;51.036;6.972;2023-04-24T13:42:36;4.53;;;3.00;;
11709;SDS011;5911;51.036;6.972;2023-04-24T13:45:04;5.63;;;3.30;;
11709;SDS011;5911;51.036;6.972;2023-04-24T13:47:50;9.83;;;3.33;;
11709;SDS011;5911;51.036;6.972;2023-04-24T13:50:18;7.20;;;3.87;;
11709;SDS011;5911;51.036;6.972;2023-04-24T13:52:46;6.50;;;2.97;;
11709;SDS011;5911;51.036;6.972;2023-04-24T13:55:14;5.57;;;2.90;;
11709;SDS011;5911;51.036;6.972;2023-04-24T13:57:44;5.33;;;2.87;;
11709;SDS011;5911;51.036;6.972;2023-04-24T14:00:12;7.23;;;2.80;;
11709;SDS011;5911;51.036;6.972;2023-04-24T14:02:41;8.80;;;3.03;;
11709;SDS011;5911;51.036;6.972;2023-04-24T14:05:09;5.80;;;3.00;;
11709;SDS011;5911;51.036;6.972;2023-04-24T14:07:38;5.27;;;2.73;;
11709;SDS011;5911;51.036;6.972;2023-04-24T14:10:06;5.87;;;3.33;;
11709;SDS011;5911;51.036;6.972;2023-04-24T14:12:34;5.20;;;2.70;;
11709;SDS011;5911;51.036;6.972;2023-04-24T14:15:04;4.60;;;2.80;;
11709;SDS011;5911;51.036;6.972;2023-04-24T14:17:33;5.77;;;3.07;;
11709;SDS011;5911;51.036;6.972;2023-04-24T14:20:01;4.50;;;3.33;;
11709;SDS011;5911;51.036;6.972;2023-04-24T14:22:30;6.83;;;3.70;;
11709;SDS011;5911;51.036;6.972;2023-04-24T14:24:58;4.13;;;3.20;;
11709;SDS011;5911;51.036;6.972;2023-04-24T14:27:26;8.93;;;4.57;;
11709;SDS011;5911;51.036;6.972;2023-04-24T14:29:54;4.30;;;3.30;;
11709;SDS011;5911;51.036;6.972;2023-04-24T14:32:27;7.20;;;3.60;;
11709;SDS011;5911;51.036;6.972;2023-04-24T14:34:54;10.70;;;3.63;;
11709;SDS011;5911;51.036;6.972;2023-04-24T14:37:23;5.50;;;3.40;;
11709;SDS011;5911;51.036;6.972;2023-04-24T14:39:50;5.60;;;3.50;;
11709;SDS011;5911;51.036;6.972;2023-04-24T14:42:38;6.93;;;3.10;;
11709;SDS011;5911;51.036;6.972;2023-04-24T14:45:07;4.67;;;2.90;;
11709;SDS011;5911;51.036;6.972;2023-04-24T14:47:37;5.80;;;3.07;;
11709;SDS011;5911;51.036;6.972;2023-04-24T14:50:08;5.83;;;2.93;;
11709;SDS011;5911;51.036;6.972;2023-04-24T14:52:38;5.73;;;2.90;;
11709;SDS011;5911;51.036;6.972;2023-04-24T14:55:06;6.33;;;2.90;;
11709;SDS011;5911;51.036;6.972;2023-04-24T14:57:35;4.73;;;2.60;;
11709;SDS011;5911;51.036;6.972;2023-04-24T15:00:03;5.13;;;3.47;;
11709;SDS011;5911;51.036;6.972;2023-04-24T15:02:34;5.13;;;2.70;;
11709;SDS011;5911;51.036;6.972;2023-04-24T15:05:07;3.93;;;2.57;;
11709;SDS011;5911;51.036;6.972;2023-04-24T15:07:36;5.67;;;2.70;;
11709;SDS011;5911;51.036;6.972;2023-04-24T15:10:04;4.73;;;2.67;;
11709;SDS011;5911;51.036;6.972;2023-04-24T15:12:33;4.97;;;2.40;;
11709;SDS011;5911;51.036;6.972;2023-04-24T15:15:01;4.80;;;2.60;;
11709;SDS011;5911;51.036;6.972;2023-04-24T15:17:28;3.70;;;2.60;;
11709;SDS011;5911;51.036;6.972;2023-04-24T15:19:58;5.00;;;3.37;;
11709;SDS011;5911;51.036;6.972;2023-04-24T15:22:27;3.40;;;2.30;;